Time;durP1;ratioP1;P1;durP2;ratioP2;P2;SDS_P1;SDS_P2;PMS_P1;PMS_P2;Temp;Humidity;BMP_temperature;BMP_pressure;BME280_temperature;BME280_humidity;BME280_pressure;Samples;Min_cycle;Max_cycle;Signal;HPM_P1;HPM_P2
2022/06/03 00:02:28;;;;;;;9.45;6.20;;;;;;;25.08;54.80;100953.75;4969819;28;20124;-63
2022/06/03 00:05:26;;;;;;;8.07;5.50;;;;;;;25.10;54.91;100966.06;4971839;28;20051;-64
2022/06/03 00:08:43;;;;;;;8.80;5.95;;;;;;;25.11;54.88;100959.28;4971772;28;20521;-63
2022/06/03 00:11:54;;;;;;;10.27;5.32;;;;;;;25.13;54.82;100967.25;4969764;28;20050;-63
2022/06/03 00:15:07;;;;;;;14.65;6.60;;;;;;;25.09;55.04;100947.00;4969099;28;20058;-63
2022/06/03 00:18:17;;;;;;;7.35;5.22;;;;;;;25.10;54.84;100951.34;4970041;28;20046;-63
2022/06/03 00:21:07;;;;;;;6.97;5.45;;;;;;;25.10;55.16;100954.13;4969684;28;20058;-63
2022/06/03 00:24:20;;;;;;;8.50;5.38;;;;;;;25.12;54.97;100951.72;4971403;28;20047;-63
2022/06/03 00:27:22;;;;;;;10.25;6.85;;;;;;;25.04;55.00;100933.50;4971697;28;20050;-63
2022/06/03 00:30:33;;;;;;;13.95;7.68;;;;;;;24.93;55.43;100943.91;4971569;28;20046;-63
2022/06/03 00:33:36;;;;;;;13.23;5.47;;;;;;;24.90;55.72;100944.72;4968770;28;20046;-64
2022/06/03 00:36:37;;;;;;;9.57;5.68;;;;;;;24.94;55.56;100946.28;4969751;28;20419;-64
2022/06/03 00:39:44;;;;;;;10.43;6.25;;;;;;;24.97;55.50;100944.69;4971583;28;20053;-64
2022/06/03 00:42:48;;;;;;;9.82;7.00;;;;;;;24.99;55.20;100945.09;4972517;28;20046;-64
2022/06/03 00:45:50;;;;;;;7.05;5.53;;;;;;;24.98;55.10;100947.06;4972296;28;20054;-64
2022/06/03 00:49:18;;;;;;;8.63;6.60;;;;;;;24.99;55.01;100942.28;4972106;28;20045;-64
2022/06/03 00:52:33;;;;;;;10.65;6.82;;;;;;;24.97;55.21;100948.25;4975399;28;20514;-63
2022/06/03 00:55:33;;;;;;;11.93;5.82;;;;;;;25.00;55.02;100954.97;4975776;28;20062;-64
2022/06/03 00:58:55;;;;;;;7.57;5.70;;;;;;;24.98;55.30;100962.97;4976100;28;20058;-63
2022/06/03 01:02:05;;;;;;;9.30;6.13;;;;;;;24.95;55.15;100970.13;4975701;28;20041;-64
2022/06/03 01:04:49;;;;;;;8.55;6.00;;;;;;;24.91;55.37;100961.00;4975456;28;20041;-64
2022/06/03 01:07:46;;;;;;;10.75;6.78;;;;;;;24.91;55.37;100979.69;4975620;28;20050;-64
2022/06/03 01:10:54;;;;;;;11.40;7.13;;;;;;;24.88;55.47;100969.38;4975389;28;20061;-63
2022/06/03 01:14:00;;;;;;;11.98;7.88;;;;;;;24.88;55.63;100972.16;4974036;28;20065;-62
2022/06/03 01:17:06;;;;;;;10.88;6.25;;;;;;;24.83;55.73;100967.00;4967178;28;20054;-63
2022/06/03 01:20:10;;;;;;;10.48;6.22;;;;;;;24.81;55.96;100969.38;4974457;28;20042;-62
2022/06/03 01:23:13;;;;;;;12.95;7.20;;;;;;;24.76;55.77;100962.25;4973665;28;20054;-64
2022/06/03 01:26:26;;;;;;;11.35;6.97;;;;;;;24.78;55.96;100965.44;4968725;28;20046;-64
2022/06/03 01:29:48;;;;;;;9.75;7.03;;;;;;;24.78;55.90;100964.66;4969335;28;20066;-63
2022/06/03 01:32:48;;;;;;;9.02;6.50;;;;;;;24.82;55.86;100957.88;4971224;28;20054;-64
2022/06/03 01:35:51;;;;;;;12.07;7.10;;;;;;;24.79;55.82;100950.31;4974001;28;20541;-64
2022/06/03 01:38:41;;;;;;;11.85;7.25;;;;;;;24.83;56.00;100944.75;4974415;28;20533;-64
2022/06/03 01:41:48;;;;;;;13.98;7.20;;;;;;;24.81;56.17;100947.94;4973817;28;20045;-64
2022/06/03 01:45:06;;;;;;;12.10;6.95;;;;;;;24.74;56.64;100953.53;4975732;28;20529;-62
2022/06/03 01:47:59;;;;;;;14.13;7.45;;;;;;;24.70;56.87;100953.56;4972684;28;20054;-62
2022/06/03 01:51:03;;;;;;;12.18;7.78;;;;;;;24.64;57.19;100940.47;4974143;28;20045;-62
2022/06/03 01:54:22;;;;;;;12.07;6.80;;;;;;;24.61;57.25;100941.28;4973968;28;20418;-64
2022/06/03 01:57:23;;;;;;;13.00;8.27;;;;;;;24.55;57.50;100946.47;4975031;28;20050;-64
2022/06/03 02:00:38;;;;;;;16.73;7.68;;;;;;;24.43;58.29;100949.69;4972198;28;20073;-63
2022/06/03 02:03:49;;;;;;;17.58;8.95;;;;;;;24.34;58.68;100945.78;4967624;28;20043;-62
2022/06/03 02:07:12;;;;;;;11.88;8.23;;;;;;;24.28;58.96;100950.94;4973252;28;20061;-63
2022/06/03 02:10:18;;;;;;;14.65;8.90;;;;;;;24.24;59.28;100958.50;4974010;28;20061;-64
2022/06/03 02:13:14;;;;;;;19.13;9.57;;;;;;;24.20;59.39;100969.66;4973503;28;20054;-63
2022/06/03 02:15:59;;;;;;;14.63;8.30;;;;;;;24.18;59.07;100960.13;4967030;28;20054;-63
2022/06/03 02:19:22;;;;;;;16.77;9.27;;;;;;;24.27;59.12;100955.75;4966074;28;20061;-64
2022/06/03 02:22:34;;;;;;;11.90;8.95;;;;;;;24.34;58.91;100968.00;4970831;28;20043;-64
2022/06/03 02:25:31;;;;;;;10.23;7.07;;;;;;;24.27;58.75;100963.28;4973006;28;20046;-63
2022/06/03 02:28:43;;;;;;;11.48;9.57;;;;;;;24.20;59.94;100971.63;4973991;28;20050;-64
2022/06/03 02:31:44;;;;;;;21.88;9.50;;;;;;;23.82;61.20;100976.84;4976120;28;20045;-64
2022/06/03 02:34:29;;;;;;;16.08;9.35;;;;;;;23.61;62.37;100974.09;4971386;28;20039;-64
2022/06/03 02:37:50;;;;;;;18.42;10.18;;;;;;;23.51;62.67;100972.13;4973070;28;20557;-64
2022/06/03 02:40:54;;;;;;;13.70;9.07;;;;;;;23.49;62.76;100968.13;4968372;28;20043;-65
2022/06/03 02:44:17;;;;;;;20.73;8.73;;;;;;;23.54;62.11;100976.88;4963438;28;20065;-64
2022/06/03 02:47:35;;;;;;;18.33;10.18;;;;;;;23.46;62.42;100978.06;4961599;28;20217;-64
2022/06/03 02:50:48;;;;;;;14.25;8.57;;;;;;;23.37;62.88;100978.41;4962398;28;20038;-63
2022/06/03 02:54:08;;;;;;;12.65;8.65;;;;;;;23.43;62.67;100973.25;4973069;28;20038;-63
2022/06/03 02:57:13;;;;;;;26.55;10.88;;;;;;;23.37;63.47;100974.84;4969441;28;20881;-64
2022/06/03 03:00:14;;;;;;;;;;;;;;;23.45;63.34;100979.25;4973471;28;20031;-64
2022/06/03 03:03:18;;;;;;;20.38;10.30;;;;;;;23.48;63.78;100980.44;4967009;28;20362;-64
2022/06/03 03:06:27;;;;;;;15.05;9.68;;;;;;;23.28;64.16;100978.03;4972834;28;20060;-64
2022/06/03 03:09:53;;;;;;;17.92;10.00;;;;;;;23.14;64.55;100979.97;4970356;28;20050;-64
2022/06/03 03:12:53;;;;;;;20.30;10.90;;;;;;;22.98;64.09;100983.13;4972538;28;20042;-64
2022/06/03 03:15:59;;;;;;;20.40;9.95;;;;;;;23.06;63.17;100978.41;4972411;28;20054;-65
2022/06/03 03:19:23;;;;;;;25.67;11.20;;;;;;;23.10;62.75;100979.19;4964857;28;20793;-64
2022/06/03 03:22:30;;;;;;;18.35;10.57;;;;;;;23.05;62.68;100972.06;4967459;28;20035;-64
2022/06/03 03:25:40;;;;;;;14.40;9.38;;;;;;;23.10;62.74;100974.44;4977409;28;20039;-65
2022/06/03 03:28:39;;;;;;;15.00;9.98;;;;;;;22.88;63.41;100973.59;4971379;28;20049;-64
2022/06/03 03:31:34;;;;;;;17.67;9.38;;;;;;;22.92;63.21;100973.59;4971560;28;20055;-64
2022/06/03 03:34:37;;;;;;;14.50;8.43;;;;;;;22.87;62.80;100971.19;4972537;28;20050;-64
2022/06/03 03:37:59;;;;;;;13.05;8.63;;;;;;;22.87;62.62;100980.31;4969827;28;20049;-64
2022/06/03 03:41:02;;;;;;;12.57;8.43;;;;;;;22.87;62.41;100983.09;4972856;28;20054;-64
2022/06/03 03:44:42;;;;;;;19.73;8.93;;;;;;;22.88;62.04;100981.91;4972508;28;20046;-63
2022/06/03 03:47:45;;;;;;;11.50;7.32;;;;;;;22.94;61.60;100983.13;4972331;28;20530;-64
2022/06/03 03:50:48;;;;;;;12.00;7.60;;;;;;;22.97;61.64;100992.63;4971564;28;20050;-64
2022/06/03 03:54:12;;;;;;;12.60;7.53;;;;;;;22.97;61.33;100987.06;4971107;28;20058;-62
2022/06/03 03:57:35;;;;;;;18.73;7.25;;;;;;;23.01;61.27;100988.66;4971884;28;20514;-63
2022/06/03 04:01:03;;;;;;;13.85;7.63;;;;;;;23.16;60.60;100991.50;4969301;28;20050;-63
2022/06/03 04:04:00;;;;;;;18.50;7.10;;;;;;;23.13;60.86;100995.84;4968066;28;20061;-63
2022/06/03 04:06:57;;;;;;;14.68;6.75;;;;;;;23.14;60.66;101000.19;4963219;28;20054;-64
2022/06/03 04:10:19;;;;;;;12.18;7.43;;;;;;;23.31;60.13;101004.19;4974409;28;20050;-63
2022/06/03 04:13:13;;;;;;;17.48;7.53;;;;;;;23.41;59.88;101004.22;4966503;28;20509;-63
2022/06/03 04:16:26;;;;;;;11.23;7.05;;;;;;;23.46;59.46;101005.03;4971610;28;20050;-64
2022/06/03 04:19:38;;;;;;;21.98;7.18;;;;;;;23.49;59.52;101005.03;4971563;28;20050;-64
2022/06/03 04:22:38;;;;;;;13.35;6.95;;;;;;;23.52;59.00;101009.00;4967684;28;20710;-64
2022/06/03 04:25:32;;;;;;;20.30;6.65;;;;;;;23.61;58.26;101004.66;4970869;28;20058;-64
2022/06/03 04:28:35;;;;;;;20.08;6.32;;;;;;;23.93;57.57;101020.47;4973906;28;20042;-64
2022/06/03 04:32:03;;;;;;;10.80;5.72;;;;;;;23.94;57.29;101035.97;4975503;28;20054;-64
2022/06/03 04:34:51;;;;;;;9.20;5.38;;;;;;;23.99;57.42;101032.78;4968989;28;20046;-63
2022/06/03 04:37:55;;;;;;;11.82;5.57;;;;;;;24.13;57.60;101041.88;4975575;28;20521;-64
2022/06/03 04:40:58;;;;;;;10.13;5.32;;;;;;;24.21;57.68;101035.16;4974372;28;20395;-67
2022/06/03 04:44:29;;;;;;;8.10;5.53;;;;;;;24.29;57.02;101038.72;4961359;28;20046;-63
2022/06/03 04:47:56;;;;;;;9.38;5.22;;;;;;;24.35;56.62;101047.44;4972482;28;20057;-63
2022/06/03 04:50:56;;;;;;;11.73;5.35;;;;;;;24.41;56.30;101032.72;4975846;28;20057;-63
2022/06/03 04:54:15;;;;;;;13.82;5.78;;;;;;;24.42;56.51;101037.09;4975354;28;20403;-63
2022/06/03 04:57:32;;;;;;;10.07;4.95;;;;;;;24.40;56.32;101039.47;4969119;28;20061;-64
2022/06/03 05:00:28;;;;;;;12.05;5.63;;;;;;;24.46;55.86;101043.44;4972404;28;20050;-64
2022/06/03 05:04:06;;;;;;;16.80;5.15;;;;;;;24.42;56.10;101042.66;4969016;28;20046;-63
2022/06/03 05:07:25;;;;;;;7.63;4.97;;;;;;;24.43;55.99;101043.47;4974845;28;20050;-63
2022/06/03 05:10:14;;;;;;;10.80;5.20;;;;;;;24.37;55.76;101029.19;4975200;28;20041;-63
2022/06/03 05:13:18;;;;;;;15.48;5.65;;;;;;;24.46;55.92;101037.88;4969737;28;20050;-63
2022/06/03 05:16:24;;;;;;;6.13;3.72;;;;;;;24.52;55.67;101033.50;4974206;28;20058;-65
2022/06/03 05:19:30;;;;;;;7.35;4.32;;;;;;;24.59;55.30;101032.66;4974459;28;20058;-63
2022/06/03 05:22:44;;;;;;;12.05;5.00;;;;;;;24.65;54.96;101028.28;4971771;28;20406;-63
2022/06/03 05:25:52;;;;;;;7.25;4.28;;;;;;;24.64;54.85;101026.69;4972770;28;20049;-62
2022/06/03 05:28:57;;;;;;;22.65;5.57;;;;;;;24.63;54.77;101023.13;4972394;28;20053;-63
2022/06/03 05:32:01;;;;;;;8.98;4.57;;;;;;;24.69;55.04;101029.84;4969149;28;20054;-65
2022/06/03 05:35:15;;;;;;;25.77;5.97;;;;;;;24.84;54.82;101036.13;4961245;28;20061;-63
2022/06/03 05:38:41;;;;;;;8.25;4.53;;;;;;;25.04;54.02;101039.28;4967793;28;20410;-63
2022/06/03 05:45:07;;;;;;;16.92;4.55;;;;;;;25.21;53.39;101043.94;4973696;28;20046;-63
2022/06/03 05:48:04;;;;;;;21.30;4.15;;;;;;;25.44;52.47;101044.19;4963423;28;20053;-63
2022/06/03 05:51:11;;;;;;;13.55;4.00;;;;;;;25.33;53.11;101046.25;4967519;28;20399;-63
2022/06/03 05:54:02;;;;;;;10.73;4.47;;;;;;;25.39;52.63;101050.19;4968449;28;20517;-63
2022/06/03 05:56:46;;;;;;;6.90;3.92;;;;;;;25.58;52.18;101050.88;4971281;28;20053;-63
2022/06/03 05:59:57;;;;;;;8.40;4.05;;;;;;;25.60;51.94;101049.25;4969193;28;20050;-63
2022/06/03 06:02:54;;;;;;;6.82;3.53;;;;;;;25.72;51.65;101062.69;4973404;28;20049;-63
2022/06/03 06:05:51;;;;;;;7.05;3.97;;;;;;;25.68;51.65;101063.94;4973355;28;20046;-63
2022/06/03 06:09:10;;;;;;;9.25;4.00;;;;;;;25.84;51.28;101073.34;4967911;28;20053;-63
2022/06/03 06:12:04;;;;;;;11.00;3.83;;;;;;;25.94;51.03;101069.69;4971604;28;20063;-64
2022/06/03 06:15:26;;;;;;;8.02;4.05;;;;;;;25.98;51.15;101064.06;4966725;28;20050;-63
2022/06/03 06:18:27;;;;;;;9.07;4.90;;;;;;;25.99;50.75;101057.31;4962595;28;20609;-62
2022/06/03 06:21:46;;;;;;;17.15;4.20;;;;;;;25.95;51.23;101056.53;4968834;28;20053;-62
2022/06/03 06:24:46;;;;;;;10.00;3.75;;;;;;;25.90;51.38;101048.63;4973371;28;20049;-65
2022/06/03 06:27:57;;;;;;;10.43;4.65;;;;;;;25.95;50.90;101062.91;4972635;28;20066;-64
2022/06/03 06:31:05;;;;;;;12.90;4.60;;;;;;;25.97;51.03;101071.63;4977979;28;20070;-67
2022/06/03 06:34:09;;;;;;;12.05;4.28;;;;;;;26.21;49.91;101074.63;4973857;28;20053;-64
2022/06/03 06:37:19;;;;;;;15.57;4.10;;;;;;;26.16;49.88;101077.88;4972089;28;20525;-66
2022/06/03 06:40:37;;;;;;;6.45;3.80;;;;;;;26.29;49.66;101073.38;4969660;28;20042;-63
2022/06/03 06:43:28;;;;;;;9.82;3.17;;;;;;;26.32;49.83;101055.78;4973781;28;20890;-64
2022/06/03 06:46:58;;;;;;;6.93;3.83;;;;;;;26.11;50.42;101062.34;4970437;28;20042;-63
2022/06/03 06:50:04;;;;;;;86.05;13.85;;;;;;;26.01;50.36;101063.25;4968087;28;20053;-64
2022/06/03 06:52:58;;;;;;;67.80;14.35;;;;;;;26.11;50.61;101062.34;4971916;28;20051;-64
2022/06/03 06:55:55;;;;;;;18.63;4.50;;;;;;;26.07;50.38;101058.81;4964947;28;20495;-64
2022/06/03 06:58:50;;;;;;;13.05;3.50;;;;;;;26.07;50.34;101058.00;4972875;28;20049;-66
2022/06/03 07:01:54;;;;;;;14.60;5.03;;;;;;;25.93;50.98;101045.00;4972743;28;20050;-64
2022/06/03 07:04:49;;;;;;;7.55;3.92;;;;;;;25.64;51.69;101021.38;4975004;28;20525;-64
2022/06/03 07:07:37;;;;;;;12.15;4.28;;;;;;;25.56;52.23;101003.91;4972178;28;20042;-64
2022/06/03 07:10:31;;;;;;;13.65;4.05;;;;;;;25.46;52.24;101008.34;4971365;28;20053;-62
2022/06/03 07:13:22;;;;;;;9.80;3.50;;;;;;;25.55;52.21;101019.03;4974599;28;20089;-63
2022/06/03 07:20:01;;;;;;;8.48;4.10;;;;;;;25.86;50.77;101043.06;4973260;28;20050;-63
2022/06/03 07:23:03;;;;;;;10.82;4.20;;;;;;;25.85;51.26;101033.13;4972577;28;20054;-63
2022/06/03 07:25:58;;;;;;;7.53;3.20;;;;;;;25.80;50.99;101030.00;4968058;28;20038;-63
2022/06/03 07:28:48;;;;;;;6.53;3.60;;;;;;;25.88;50.81;101026.75;4962187;28;20058;-64
2022/06/03 07:31:56;;;;;;;6.72;3.90;;;;;;;26.05;50.19;101036.16;4969314;28;20054;-62
2022/06/03 07:34:53;;;;;;;29.23;8.50;;;;;;;25.86;51.27;101014.41;4971718;28;20050;-62
2022/06/03 07:37:56;;;;;;;11.48;4.03;;;;;;;25.76;51.16;101015.28;4972584;28;20410;-62
2022/06/03 07:41:04;;;;;;;10.65;4.65;;;;;;;25.72;51.41;101011.75;4972296;28;20510;-62
2022/06/03 07:44:02;;;;;;;14.23;4.80;;;;;;;25.93;51.34;101006.78;4965462;28;20045;-62
2022/06/03 07:46:53;;;;;;;10.73;4.28;;;;;;;26.01;51.02;101001.91;4964358;28;20050;-62
2022/06/03 07:49:38;;;;;;;9.07;3.97;;;;;;;26.09;50.86;101006.22;4962899;28;20053;-62
2022/06/03 07:52:36;;;;;;;6.60;3.95;;;;;;;26.24;50.39;100999.31;4966145;28;20406;-62
2022/06/03 07:55:24;;;;;;;19.92;4.50;;;;;;;26.11;50.70;101001.00;4967283;28;20065;-62
2022/06/03 07:58:15;;;;;;;7.55;3.33;;;;;;;26.23;50.10;101010.88;4966757;28;20437;-62
2022/06/03 08:01:00;;;;;;;12.02;3.10;;;;;;;26.58;48.90;101010.47;4972880;28;20218;-62
2022/06/03 08:03:46;;;;;;;12.02;3.80;;;;;;;26.88;47.96;101020.09;4976412;28;20057;-63
2022/06/03 08:12:43;;;;;;;9.27;3.30;;;;;;;27.49;46.51;101030.00;4968093;28;20497;-63
2022/06/03 08:15:33;;;;;;;9.90;3.35;;;;;;;27.64;45.86;101022.16;4967389;28;20406;-63
2022/06/03 08:18:21;;;;;;;12.25;3.15;;;;;;;27.65;46.53;101018.16;4970954;28;20070;-63
2022/06/03 08:21:25;;;;;;;16.25;3.88;;;;;;;27.68;46.18;101025.72;4973512;28;20053;-63
2022/06/03 08:24:15;;;;;;;30.63;3.42;;;;;;;27.74;45.83;101034.38;4983413;28;20057;-62
2022/06/03 08:27:10;;;;;;;13.80;3.45;;;;;;;28.22;45.17;101039.56;4968345;28;20050;-63
2022/06/03 08:29:59;;;;;;;;;;;;;;;28.38;44.35;101042.44;4974818;28;20049;-65
2022/06/03 08:32:49;;;;;;;7.47;3.40;;;;;;;28.09;44.70;101040.13;4971425;28;19918;-65
2022/06/03 08:35:38;;;;;;;6.82;2.80;;;;;;;28.25;44.49;101036.69;4971590;28;20290;-65
2022/06/03 08:38:30;;;;;;;11.77;3.60;;;;;;;28.04;44.14;101042.63;4972825;28;20518;-63
2022/06/03 08:41:40;;;;;;;5.68;3.30;;;;;;;28.12;44.85;101038.53;4973649;28;20055;-64
2022/06/03 08:44:32;;;;;;;9.63;3.65;;;;;;;28.22;44.53;101034.75;4973688;28;20406;-63
2022/06/03 08:47:42;;;;;;;9.85;3.35;;;;;;;28.53;44.65;101043.75;4971957;28;20538;-64
2022/06/03 08:50:40;;;;;;;9.63;3.08;;;;;;;28.64;43.83;101032.34;4974808;28;20050;-63
2022/06/03 08:53:39;;;;;;;8.80;4.50;;;;;;;28.44;44.14;101023.94;4964142;28;20207;-63
2022/06/03 08:56:31;;;;;;;8.20;3.05;;;;;;;28.90;43.11;101017.41;4959879;28;20403;-63
2022/06/03 08:59:23;;;;;;;11.38;3.55;;;;;;;28.95;42.40;101022.50;4971825;28;20045;-64
2022/06/03 09:02:14;;;;;;;10.90;3.13;;;;;;;28.43;43.54;101011.16;4969399;28;20049;-66
2022/06/03 09:05:13;;;;;;;6.25;3.25;;;;;;;28.76;43.00;101010.09;4971416;28;20050;-65
2022/06/03 09:08:17;;;;;;;8.07;3.53;;;;;;;28.38;43.13;101003.28;4972181;28;20062;-63
2022/06/03 09:11:14;;;;;;;6.47;3.25;;;;;;;28.29;43.52;101005.88;4967835;28;20514;-64
2022/06/03 09:14:05;;;;;;;7.10;3.38;;;;;;;28.25;43.67;101011.50;4971207;28;20050;-64
2022/06/03 09:16:55;;;;;;;6.60;3.30;;;;;;;28.19;44.23;101018.03;4972310;28;20050;-63
2022/06/03 09:19:44;;;;;;;21.95;4.05;;;;;;;28.46;43.92;101018.69;4973158;28;20045;-63
2022/06/03 09:22:31;;;;;;;7.05;3.75;;;;;;;28.59;43.31;101025.25;4971167;28;20063;-63
2022/06/03 09:25:18;;;;;;;10.10;3.35;;;;;;;28.72;43.00;101034.59;4968856;28;20058;-64
2022/06/03 09:28:06;;;;;;;16.17;3.92;;;;;;;28.57;43.80;101041.66;4974795;28;20054;-63
2022/06/03 09:30:52;;;;;;;7.82;3.53;;;;;;;28.47;44.06;101039.88;4982467;28;20440;-65
2022/06/03 09:33:39;;;;;;;9.40;3.50;;;;;;;28.35;44.23;101040.50;4996694;28;20053;-65
2022/06/03 09:36:26;;;;;;;25.63;3.70;;;;;;;28.31;44.00;101040.56;4971963;28;20053;-65
2022/06/03 09:39:18;;;;;;;12.30;3.20;;;;;;;28.52;43.79;101036.56;4971402;28;20127;-64
2022/06/03 09:42:04;;;;;;;8.93;3.53;;;;;;;28.53;43.48;101031.75;4969390;28;20061;-64
2022/06/03 09:44:51;;;;;;;5.85;3.08;;;;;;;28.39;43.56;101021.66;4973986;28;20050;-64
2022/06/03 09:47:36;;;;;;;17.67;3.47;;;;;;;27.99;44.99;101010.34;4972910;28;20065;-64
2022/06/03 09:50:24;;;;;;;14.75;3.78;;;;;;;28.17;44.16;101003.69;4973081;28;20606;-64
2022/06/03 09:53:10;;;;;;;9.75;3.30;;;;;;;28.21;44.38;101007.19;4970441;28;20415;-64
2022/06/03 09:56:02;;;;;;;10.02;4.85;;;;;;;27.89;44.26;101005.75;4973912;28;20050;-65
2022/06/03 09:58:54;;;;;;;11.45;3.55;;;;;;;27.85;44.75;101005.03;4971803;28;20042;-65
2022/06/03 10:01:41;;;;;;;10.02;3.60;;;;;;;27.68;45.21;100997.75;4973021;28;20403;-65
2022/06/03 10:04:26;;;;;;;122.85;10.75;;;;;;;27.76;45.09;101001.22;4974018;28;20057;-64
2022/06/03 10:07:11;;;;;;;9.02;3.80;;;;;;;27.85;45.17;101016.22;4962703;28;20042;-65
2022/06/03 10:13:01;;;;;;;7.68;3.50;;;;;;;27.80;45.05;101019.50;4960763;28;20047;-64
2022/06/03 10:15:53;;;;;;;7.00;3.47;;;;;;;27.85;45.29;101019.00;4970120;28;20045;-64
2022/06/03 10:18:49;;;;;;;8.82;3.30;;;;;;;28.03;44.80;101027.88;4971151;28;20049;-64
2022/06/03 10:21:34;;;;;;;7.65;3.70;;;;;;;27.78;44.88;101030.34;4965630;28;20057;-65
2022/06/03 10:24:21;;;;;;;5.30;3.40;;;;;;;27.83;45.32;101029.84;4967403;28;20070;-65
2022/06/03 10:27:07;;;;;;;5.85;3.25;;;;;;;27.86;45.94;101034.56;4962217;28;20037;-66
2022/06/03 10:29:52;;;;;;;14.52;5.10;;;;;;;27.90;45.84;101040.09;4969501;28;20046;-65
2022/06/03 10:32:37;;;;;;;6.05;3.30;;;;;;;27.80;45.52;101041.84;4970360;28;20130;-64
2022/06/03 10:35:29;;;;;;;7.93;3.63;;;;;;;28.00;45.42;101045.50;4972958;28;20062;-64
2022/06/03 10:38:21;;;;;;;7.95;3.85;;;;;;;28.14;45.41;101049.31;4968416;28;20049;-64
2022/06/03 10:41:09;;;;;;;8.93;3.70;;;;;;;28.24;44.96;101048.31;4960577;28;20050;-64
2022/06/03 10:43:54;;;;;;;24.63;4.05;;;;;;;28.30;44.29;101052.19;4969006;28;20410;-64
2022/06/03 10:47:00;;;;;;;14.52;3.90;;;;;;;28.39;43.83;101060.81;4962480;28;20111;-64
2022/06/03 10:49:54;;;;;;;6.80;3.75;;;;;;;28.29;43.79;101061.81;4963162;28;20073;-64
2022/06/03 11:01:59;;;;;;;12.02;3.85;;;;;;;28.22;44.50;101067.53;4962635;28;20058;-64
2022/06/03 11:04:45;;;;;;;8.93;4.47;;;;;;;28.15;44.77;101068.44;4965817;28;20537;-64
2022/06/03 11:07:30;;;;;;;8.35;3.35;;;;;;;28.04;44.66;101067.81;4964585;28;20399;-64
2022/06/03 11:10:25;;;;;;;13.27;3.17;;;;;;;27.89;44.72;101064.47;4966948;28;20415;-64
2022/06/03 11:13:27;;;;;;;9.95;3.47;;;;;;;28.04;44.39;101062.19;4961124;28;20038;-63
2022/06/03 11:16:19;;;;;;;5.50;3.40;;;;;;;27.90;45.32;101057.66;4968656;28;20054;-64
2022/06/03 11:19:20;;;;;;;8.60;3.90;;;;;;;27.94;45.12;101055.59;4969127;28;20058;-63
2022/06/03 11:22:14;;;;;;;6.72;3.40;;;;;;;27.87;45.18;101063.31;4966079;28;20050;-63
2022/06/03 11:25:11;;;;;;;8.68;3.90;;;;;;;27.95;45.58;101061.97;4967187;28;20058;-64
2022/06/03 11:28:09;;;;;;;8.63;4.25;;;;;;;27.80;45.21;101053.03;4964264;28;20045;-64
2022/06/03 11:31:14;;;;;;;4.50;3.70;;;;;;;27.83;45.98;101046.63;4954185;28;20046;-63
2022/06/03 11:34:09;;;;;;;9.38;3.60;;;;;;;27.77;45.51;101041.94;4961126;28;20415;-64
2022/06/03 11:37:05;;;;;;;7.57;3.63;;;;;;;27.74;46.29;101043.56;4956687;28;20415;-64
2022/06/03 11:40:04;;;;;;;10.82;4.15;;;;;;;27.71;46.97;101044.41;4955862;28;20061;-64
2022/06/03 11:42:53;;;;;;;11.32;4.63;;;;;;;27.66;47.15;101047.69;4961981;28;20050;-64
2022/06/03 11:45:45;;;;;;;8.57;3.17;;;;;;;27.60;46.24;101027.81;4950422;28;20101;-64
2022/06/03 11:48:35;;;;;;;9.02;3.92;;;;;;;27.46;46.52;101035.59;4960180;28;20773;-65
2022/06/03 11:51:19;;;;;;;7.05;3.60;;;;;;;27.58;46.76;101043.44;4954775;28;20042;-65
2022/06/03 11:54:12;;;;;;;8.88;4.03;;;;;;;27.64;46.56;101048.09;4963950;28;20401;-64
2022/06/03 11:57:00;;;;;;;9.10;3.88;;;;;;;27.56;46.57;101043.06;4964055;28;20046;-64
2022/06/03 12:00:05;;;;;;;8.02;4.07;;;;;;;27.51;47.16;101038.75;4972261;28;20050;-65
2022/06/03 12:02:59;;;;;;;13.43;5.00;;;;;;;27.44;47.82;101041.63;4977003;28;20541;-64
2022/06/03 12:05:59;;;;;;;9.45;4.25;;;;;;;27.52;47.53;101036.75;4955707;28;20054;-64
2022/06/03 12:09:12;;;;;;;7.80;4.00;;;;;;;27.52;47.09;101043.13;4969670;28;20057;-64
2022/06/03 12:15:36;;;;;;;6.00;4.32;;;;;;;27.37;47.54;101027.78;4966587;28;20049;-64
2022/06/03 12:18:39;;;;;;;11.73;4.20;;;;;;;27.40;47.02;101018.53;4965098;28;20534;-64
2022/06/03 12:21:31;;;;;;;7.63;4.32;;;;;;;27.40;47.71;101017.75;4972250;28;20399;-64
2022/06/03 12:24:39;;;;;;;7.80;4.93;;;;;;;27.32;47.77;101013.50;4972261;28;20058;-64
2022/06/03 12:27:37;;;;;;;9.82;4.50;;;;;;;27.26;48.03;101013.16;4952580;29;20403;-64
2022/06/03 12:30:32;;;;;;;7.38;4.30;;;;;;;27.23;48.50;101008.41;4952924;29;20063;-64
2022/06/03 12:33:43;;;;;;;20.17;4.82;;;;;;;27.37;48.30;101018.59;4952887;29;20051;-64
2022/06/03 12:36:52;;;;;;;9.45;4.10;;;;;;;27.37;48.34;101024.19;4965461;28;20054;-64
2022/06/03 12:39:55;;;;;;;10.57;5.13;;;;;;;27.28;49.12;101030.28;4971498;28;20054;-64
2022/06/03 12:42:40;;;;;;;17.48;5.10;;;;;;;27.21;48.49;101041.56;4971974;28;20062;-64
2022/06/03 12:45:32;;;;;;;11.18;5.32;;;;;;;27.30;48.54;101030.66;4971131;28;20058;-64
2022/06/03 12:48:35;;;;;;;5.60;4.70;;;;;;;27.32;48.62;101031.03;4973430;28;20062;-64
2022/06/03 12:51:28;;;;;;;10.27;3.95;;;;;;;27.32;49.01;101038.63;4970944;28;20049;-64
2022/06/03 12:54:18;;;;;;;11.20;5.10;;;;;;;27.24;48.83;101038.72;4967278;28;20459;-64
2022/06/03 12:57:22;;;;;;;13.20;6.47;;;;;;;27.29;50.13;101047.84;4974903;28;20046;-64
2022/06/03 13:00:10;;;;;;;5.55;4.70;;;;;;;27.26;50.22;101043.09;4966953;28;20049;-67
2022/06/03 13:03:01;;;;;;;12.02;5.78;;;;;;;27.23;51.26;101037.13;4983660;28;20653;-67
2022/06/03 13:05:48;;;;;;;7.55;4.80;;;;;;;27.26;50.77;101034.72;4969736;28;20399;-67
2022/06/03 13:08:33;;;;;;;14.48;5.22;;;;;;;27.19;51.11;101036.41;4974980;28;20058;-66
2022/06/03 13:11:22;;;;;;;14.13;5.13;;;;;;;27.16;51.95;101042.03;4966105;28;20430;-66
2022/06/03 13:14:27;;;;;;;10.25;5.30;;;;;;;27.14;52.37;101055.63;4972441;28;20042;-66
2022/06/03 13:17:50;;;;;;;9.30;5.20;;;;;;;27.13;53.21;101051.25;4969192;28;20049;-66
2022/06/03 13:20:34;;;;;;;12.30;5.72;;;;;;;27.11;54.11;101046.09;4972806;28;20281;-66
2022/06/03 13:23:19;;;;;;;12.13;7.55;;;;;;;27.13;55.31;101038.06;4973901;28;20402;-66
2022/06/03 13:26:30;;;;;;;15.95;6.35;;;;;;;27.21;56.39;101016.44;4975100;28;20042;-66
2022/06/03 13:29:44;;;;;;;9.98;6.15;;;;;;;27.21;56.24;101019.22;4974854;28;20057;-66
2022/06/03 13:32:35;;;;;;;13.93;6.07;;;;;;;27.20;55.05;101010.06;4965474;28;20050;-65
2022/06/03 13:35:32;;;;;;;11.68;6.10;;;;;;;27.15;55.52;100996.56;4955367;29;20046;-66
2022/06/03 13:38:25;;;;;;;10.07;6.40;;;;;;;27.14;55.73;101006.16;4972534;28;20411;-66
2022/06/03 13:44:50;;;;;;;10.45;7.65;;;;;;;26.94;59.76;101030.38;4977446;28;20399;-66
2022/06/03 13:47:42;;;;;;;17.17;8.52;;;;;;;26.80;61.47;101052.88;4974613;28;20395;-66
2022/06/03 13:50:27;;;;;;;12.32;8.50;;;;;;;26.72;62.52;101049.34;4973885;28;20046;-66
2022/06/03 13:53:22;;;;;;;17.63;8.45;;;;;;;26.68;62.49;101050.59;4974085;28;20498;-66
2022/06/03 13:56:09;;;;;;;16.45;9.68;;;;;;;26.63;61.19;101065.03;4974081;28;20046;-66
2022/06/03 13:58:56;;;;;;;13.70;8.73;;;;;;;26.57;61.92;101067.47;4973321;28;20053;-66
2022/06/03 14:01:45;;;;;;;27.35;11.02;;;;;;;26.51;63.24;101080.31;4974262;28;20046;-66
2022/06/03 14:04:32;;;;;;;15.35;12.45;;;;;;;26.45;64.38;101098.72;4973410;28;20042;-66
2022/06/03 14:07:26;;;;;;;20.55;11.00;;;;;;;26.45;64.15;101101.50;4973997;28;20038;-66
2022/06/03 14:10:17;;;;;;;19.13;13.55;;;;;;;26.37;64.21;101103.56;4974260;28;20046;-66
2022/06/03 14:13:40;;;;;;;24.02;16.10;;;;;;;26.38;65.11;101087.63;4973411;28;20046;-66
2022/06/03 14:16:48;;;;;;;22.35;14.20;;;;;;;26.22;63.27;101079.81;4954345;29;20048;-66
2022/06/03 14:19:39;;;;;;;23.98;15.73;;;;;;;26.15;64.10;101091.00;4961209;28;20047;-66
2022/06/03 14:22:49;;;;;;;20.95;14.13;;;;;;;26.05;63.87;101086.31;4973753;28;20043;-66
2022/06/03 14:25:51;;;;;;;17.58;14.00;;;;;;;26.03;64.25;101091.50;4972769;28;20404;-66